createdAt,value
2024-02-19T00:01:26.846Z,9.30
2024-02-19T00:03:57.242Z,9.34
2024-02-19T00:06:27.408Z,9.22
2024-02-19T00:08:59.839Z,9.28
2024-02-19T00:11:31.241Z,9.34
2024-02-19T00:14:01.129Z,9.30
2024-02-19T00:16:31.072Z,9.35
2024-02-19T00:19:01.146Z,9.27
2024-02-19T00:21:31.009Z,9.18
2024-02-19T00:24:03.456Z,9.21
2024-02-19T00:26:33.255Z,9.15
2024-02-19T00:29:03.035Z,9.11
2024-02-19T00:31:33.527Z,9.09
2024-02-19T00:34:03.363Z,8.92
2024-02-19T00:36:33.211Z,8.82
2024-02-19T00:39:06.144Z,8.68
2024-02-19T00:41:36.049Z,8.52
2024-02-19T00:44:05.805Z,8.45
2024-02-19T00:46:35.761Z,8.42
2024-02-19T00:49:05.614Z,8.36
2024-02-19T00:51:38.069Z,8.33
2024-02-19T00:54:10.436Z,8.25
2024-02-19T00:56:40.882Z,8.27
2024-02-19T00:59:11.069Z,8.26
2024-02-19T01:01:41.027Z,8.26
2024-02-19T01:04:10.932Z,8.21
2024-02-19T01:06:40.803Z,8.27
2024-02-19T01:09:13.660Z,8.27
2024-02-19T01:11:43.992Z,8.19
2024-02-19T01:14:13.743Z,8.15
2024-02-19T01:16:43.540Z,8.08
2024-02-19T01:19:14.203Z,7.95
2024-02-19T01:21:44.362Z,7.89
2024-02-19T01:24:16.823Z,7.82
2024-02-19T01:26:46.972Z,7.85
2024-02-19T01:29:17.095Z,7.80
2024-02-19T01:31:46.920Z,7.74
2024-02-19T01:34:17.535Z,7.71
2024-02-19T01:36:47.710Z,7.76
2024-02-19T01:39:20.158Z,7.74
2024-02-19T01:41:50.000Z,7.77
2024-02-19T01:44:19.789Z,7.75
2024-02-19T01:46:50.080Z,7.65
2024-02-19T01:49:20.066Z,7.68
2024-02-19T01:51:50.638Z,7.60
2024-02-19T01:54:23.181Z,7.55
2024-02-19T01:56:54.435Z,7.53
2024-02-19T01:59:25.743Z,7.53
2024-02-19T02:01:57.288Z,7.42
2024-02-19T02:04:27.864Z,7.59
2024-02-19T02:06:58.108Z,7.46
2024-02-19T02:09:30.701Z,7.46
2024-02-19T02:12:00.630Z,7.29
2024-02-19T02:14:30.640Z,7.30
2024-02-19T02:17:00.426Z,7.27
2024-02-19T02:19:30.373Z,7.16
2024-02-19T02:22:00.245Z,7.09
2024-02-19T02:24:32.739Z,7.17
2024-02-19T02:27:05.161Z,7.20
2024-02-19T02:29:35.012Z,7.22
2024-02-19T02:32:04.852Z,7.21
2024-02-19T02:34:35.917Z,7.25
2024-02-19T02:37:06.480Z,7.24
2024-02-19T02:39:33.974Z,7.24
2024-02-19T02:42:07.049Z,7.35
2024-02-19T02:44:36.945Z,7.36
2024-02-19T02:47:07.353Z,7.34
2024-02-19T02:49:37.254Z,7.36
2024-02-19T02:52:07.567Z,7.26
2024-02-19T02:54:38.416Z,7.26
2024-02-19T02:57:10.855Z,7.44
2024-02-19T02:59:40.633Z,7.31
2024-02-19T03:02:10.451Z,7.20
2024-02-19T03:04:40.490Z,7.25
2024-02-19T03:07:10.453Z,7.24
2024-02-19T03:09:40.353Z,7.20
2024-02-19T03:12:12.871Z,7.27
2024-02-19T03:14:42.808Z,7.29
2024-02-19T03:17:12.627Z,7.28
2024-02-19T03:19:42.860Z,7.33
2024-02-19T03:22:12.998Z,7.25
2024-02-19T03:24:42.933Z,7.13
2024-02-19T03:27:15.871Z,7.10
2024-02-19T03:29:45.630Z,7.03
2024-02-19T03:32:15.419Z,6.93
2024-02-19T03:34:45.217Z,6.81
2024-02-19T03:37:16.570Z,6.87
2024-02-19T03:39:46.486Z,6.73
2024-02-19T03:42:18.877Z,6.69
2024-02-19T03:44:48.758Z,6.74
2024-02-19T03:47:18.641Z,6.67
2024-02-19T03:49:48.491Z,6.76
2024-02-19T03:52:18.613Z,6.74
2024-02-19T03:54:48.648Z,6.71
2024-02-19T03:57:23.881Z,6.78
2024-02-19T03:59:53.741Z,6.67
2024-02-19T04:02:23.526Z,6.73
2024-02-19T04:04:53.445Z,6.73
2024-02-19T04:07:23.298Z,6.68
2024-02-19T04:09:53.149Z,6.68
2024-02-19T04:12:25.612Z,6.65
2024-02-19T04:14:56.971Z,6.72
2024-02-19T04:17:27.774Z,6.64
2024-02-19T04:20:00.271Z,6.65
2024-02-19T04:22:30.150Z,6.68
2024-02-19T04:24:59.981Z,6.69
2024-02-19T04:27:32.344Z,6.64
2024-02-19T04:30:02.167Z,6.65
2024-02-19T04:32:32.516Z,6.60
2024-02-19T04:35:02.546Z,6.56
2024-02-19T04:37:34.146Z,6.66
2024-02-19T04:40:04.498Z,6.70
2024-02-19T04:42:37.239Z,6.70
2024-02-19T04:45:08.090Z,6.69
2024-02-19T04:47:37.995Z,6.74
2024-02-19T04:50:09.888Z,6.72
2024-02-19T04:52:39.895Z,6.76
2024-02-19T04:55:10.506Z,6.73
2024-02-19T04:57:43.085Z,6.69
2024-02-19T05:00:14.157Z,6.75
2024-02-19T05:02:44.044Z,6.72
2024-02-19T05:05:14.017Z,6.60
2024-02-19T05:07:44.003Z,6.57
2024-02-19T05:10:14.520Z,6.60
2024-02-19T05:12:46.962Z,6.36
2024-02-19T05:15:16.960Z,6.38
2024-02-19T05:17:46.850Z,6.39
2024-02-19T05:20:17.059Z,6.32
2024-02-19T05:22:47.311Z,6.41
2024-02-19T05:25:17.734Z,6.41
2024-02-19T05:27:50.230Z,6.43
2024-02-19T05:30:21.536Z,6.51
2024-02-19T05:32:51.461Z,6.51
2024-02-19T05:35:22.279Z,6.51
2024-02-19T05:37:52.364Z,6.55
2024-02-19T05:40:22.315Z,6.51
2024-02-19T05:42:54.769Z,6.53
2024-02-19T05:45:24.650Z,6.48
2024-02-19T05:47:54.494Z,6.53
2024-02-19T05:50:24.469Z,6.40
2024-02-19T05:52:54.240Z,6.41
2024-02-19T05:55:24.143Z,6.42
2024-02-19T05:57:56.576Z,6.39
2024-02-19T06:00:26.456Z,6.43
2024-02-19T06:02:57.395Z,6.50
2024-02-19T06:05:27.264Z,6.42
2024-02-19T06:07:57.068Z,6.51
2024-02-19T06:10:26.898Z,6.51
2024-02-19T06:12:59.982Z,6.37
2024-02-19T06:15:29.813Z,6.36
2024-02-19T06:17:59.668Z,6.34
2024-02-19T06:20:29.778Z,6.47
2024-02-19T06:22:59.636Z,6.46
2024-02-19T06:25:29.601Z,6.39
2024-02-19T06:28:03.511Z,6.45
2024-02-19T06:30:33.422Z,6.36
2024-02-19T06:33:03.326Z,6.38
2024-02-19T06:35:33.315Z,6.45
2024-02-19T06:38:03.891Z,6.41
2024-02-19T06:40:33.815Z,6.34
2024-02-19T06:43:06.505Z,6.33
2024-02-19T06:45:36.413Z,6.34
2024-02-19T06:48:06.958Z,6.33
2024-02-19T06:50:36.885Z,6.43
2024-02-19T06:53:07.574Z,6.48
2024-02-19T06:55:37.382Z,6.56
2024-02-19T06:58:09.991Z,6.52
2024-02-19T07:00:40.976Z,6.50
2024-02-19T07:03:10.840Z,6.50
2024-02-19T07:05:41.429Z,6.40
2024-02-19T07:08:13.309Z,6.40
2024-02-19T07:10:43.563Z,6.36
2024-02-19T07:13:16.062Z,6.30
2024-02-19T07:15:45.941Z,6.29
2024-02-19T07:18:15.887Z,6.35
2024-02-19T07:20:45.946Z,6.35
2024-02-19T07:23:15.801Z,6.46
2024-02-19T07:25:45.649Z,6.54
2024-02-19T07:28:18.075Z,6.55
2024-02-19T07:30:47.898Z,6.70
2024-02-19T07:33:17.766Z,6.71
2024-02-19T07:35:47.641Z,6.86
2024-02-19T07:38:17.422Z,6.89
2024-02-19T07:40:47.211Z,6.80
2024-02-19T07:43:19.701Z,6.74
2024-02-19T07:45:49.658Z,6.79
2024-02-19T07:48:19.525Z,6.85
2024-02-19T07:50:49.406Z,6.95
2024-02-19T07:53:19.224Z,6.87
2024-02-19T07:55:49.032Z,6.86
2024-02-19T07:58:21.757Z,6.90
2024-02-19T08:00:52.188Z,6.92
2024-02-19T08:03:22.027Z,7.02
2024-02-19T08:05:51.958Z,7.10
2024-02-19T08:08:22.992Z,7.15
2024-02-19T08:10:52.863Z,7.15
2024-02-19T08:13:25.608Z,7.23
2024-02-19T08:15:55.601Z,7.20
2024-02-19T08:18:25.795Z,7.10
2024-02-19T08:20:55.692Z,7.16
2024-02-19T08:23:25.529Z,7.20
2024-02-19T08:25:55.415Z,7.25
2024-02-19T08:28:27.865Z,7.19
2024-02-19T08:30:58.603Z,7.20
2024-02-19T08:33:29.375Z,7.25
2024-02-19T08:36:01.895Z,7.27
2024-02-19T08:38:31.989Z,7.20
2024-02-19T08:41:01.824Z,7.36
2024-02-19T08:43:34.283Z,7.38
2024-02-19T08:46:04.152Z,7.38
2024-02-19T08:48:33.977Z,7.40
2024-02-19T08:51:03.855Z,7.47
2024-02-19T08:53:33.753Z,7.65
2024-02-19T08:56:04.323Z,7.52
2024-02-19T08:58:37.002Z,7.55
2024-02-19T09:01:11.634Z,7.61
2024-02-19T09:03:41.761Z,7.53
2024-02-19T09:06:11.749Z,7.64
2024-02-19T09:08:41.936Z,7.80
2024-02-19T09:11:11.895Z,7.75
2024-02-19T09:13:47.105Z,7.66
2024-02-19T09:16:17.554Z,7.86
2024-02-19T09:18:47.638Z,7.72
2024-02-19T09:21:17.549Z,8.04
2024-02-19T09:23:47.620Z,8.23
2024-02-19T09:26:17.558Z,8.16
2024-02-19T09:28:49.963Z,7.91
2024-02-19T09:31:24.327Z,7.81
2024-02-19T09:33:54.820Z,7.98
2024-02-19T09:36:24.766Z,8.05
2024-02-19T09:38:54.633Z,7.85
2024-02-19T09:41:24.648Z,7.91
2024-02-19T09:43:57.643Z,7.79
2024-02-19T09:46:27.576Z,7.95
2024-02-19T09:49:03.252Z,8.05
2024-02-19T09:51:37.521Z,8.06
2024-02-19T09:54:11.882Z,8.12
2024-02-19T09:56:41.836Z,8.08
2024-02-19T09:59:15.167Z,8.38
2024-02-19T10:01:45.088Z,8.52
2024-02-19T10:04:15.911Z,8.53
2024-02-19T10:06:46.743Z,8.53
2024-02-19T10:09:16.896Z,8.25
2024-02-19T10:11:48.602Z,8.41
2024-02-19T10:14:21.592Z,8.46
2024-02-19T10:16:54.270Z,8.55
2024-02-19T10:19:24.160Z,8.50
2024-02-19T10:21:54.021Z,8.57
2024-02-19T10:24:24.536Z,8.50
2024-02-19T10:26:55.004Z,8.51
2024-02-19T10:29:29.523Z,8.58
2024-02-19T10:31:59.342Z,8.66
2024-02-19T10:34:29.256Z,8.50
2024-02-19T10:37:00.410Z,8.71
2024-02-19T10:39:33.055Z,8.76
2024-02-19T10:42:03.357Z,8.73
2024-02-19T10:44:37.037Z,8.85
2024-02-19T10:47:08.620Z,8.72
2024-02-19T10:49:38.535Z,8.68
2024-02-19T10:52:08.967Z,8.77
2024-02-19T10:54:38.794Z,9.04
2024-02-19T10:57:10.972Z,8.95
2024-02-19T10:59:44.426Z,8.87
2024-02-19T11:02:14.443Z,8.90
2024-02-19T11:04:44.481Z,8.98
2024-02-19T11:07:16.289Z,8.98
2024-02-19T11:09:46.153Z,9.04
2024-02-19T11:12:18.487Z,9.25
2024-02-19T11:14:53.850Z,9.02
2024-02-19T11:17:23.655Z,9.24
2024-02-19T11:19:55.171Z,9.05
2024-02-19T11:22:31.644Z,9.31
2024-02-19T11:25:02.382Z,9.43
2024-02-19T11:27:32.405Z,9.55
2024-02-19T11:30:07.403Z,9.57
2024-02-19T11:32:38.018Z,9.76
2024-02-19T11:35:15.215Z,9.45
2024-02-19T11:37:47.411Z,9.55
2024-02-19T11:40:17.472Z,9.40
2024-02-19T11:42:48.110Z,9.53
2024-02-19T11:45:21.208Z,9.67
2024-02-19T11:47:51.239Z,9.75
2024-02-19T11:50:25.145Z,9.92
2024-02-19T11:52:55.434Z,9.87
2024-02-19T11:55:25.524Z,10.10
2024-02-19T11:57:55.887Z,10.02
2024-02-19T12:00:31.130Z,9.93
2024-02-19T12:03:04.030Z,10.05
2024-02-19T12:05:34.225Z,10.10
2024-02-19T12:08:05.504Z,10.10
2024-02-19T12:10:35.673Z,10.14
2024-02-19T12:13:05.600Z,10.14
2024-02-19T12:15:38.075Z,10.13
2024-02-19T12:18:08.298Z,9.98
2024-02-19T12:20:38.226Z,9.87
2024-02-19T12:23:08.258Z,9.57
2024-02-19T12:25:38.131Z,9.49
2024-02-19T12:28:08.633Z,9.82
2024-02-19T12:30:41.058Z,10.15
2024-02-19T12:33:12.285Z,10.15
2024-02-19T12:35:42.480Z,10.17
2024-02-19T12:38:12.455Z,10.10
2024-02-19T12:40:42.797Z,10.06
2024-02-19T12:43:13.064Z,10.18
2024-02-19T12:45:45.749Z,10.04
2024-02-19T12:48:15.677Z,10.02
2024-02-19T12:50:45.568Z,10.15
2024-02-19T12:53:16.746Z,10.30
2024-02-19T12:55:46.590Z,10.45
2024-02-19T12:58:16.912Z,10.73
2024-02-19T13:00:49.829Z,10.53
2024-02-19T13:03:19.795Z,10.21
2024-02-19T13:05:50.202Z,10.12
2024-02-19T13:08:20.418Z,10.02
2024-02-19T13:10:51.238Z,10.17
2024-02-19T13:13:21.833Z,10.11
2024-02-19T13:15:55.061Z,10.16
2024-02-19T13:18:25.273Z,10.21
2024-02-19T13:20:57.585Z,10.20
2024-02-19T13:23:27.746Z,10.12
2024-02-19T13:25:57.499Z,10.18
2024-02-19T13:28:27.331Z,10.12
2024-02-19T13:31:00.056Z,10.20
2024-02-19T13:33:30.711Z,10.14
2024-02-19T13:36:00.607Z,9.94
2024-02-19T13:38:31.172Z,9.87
2024-02-19T13:41:04.461Z,9.83
2024-02-19T13:43:34.778Z,9.75
2024-02-19T13:46:08.703Z,9.76
2024-02-19T13:48:40.888Z,9.86
2024-02-19T13:51:10.890Z,9.93
2024-02-19T13:53:40.768Z,9.72
2024-02-19T13:56:10.609Z,9.86
2024-02-19T13:58:40.638Z,9.83
2024-02-19T14:01:13.560Z,9.91
2024-02-19T14:03:44.104Z,10.04
2024-02-19T14:06:13.991Z,10.03
2024-02-19T14:08:43.886Z,10.03
2024-02-19T14:11:13.691Z,10.17
2024-02-19T14:13:50.832Z,10.08
2024-02-19T14:16:27.868Z,10.05
2024-02-19T14:18:58.346Z,10.29
2024-02-19T14:21:29.864Z,10.21
2024-02-19T14:23:59.919Z,10.27
2024-02-19T14:26:30.422Z,10.29
2024-02-19T14:29:02.786Z,10.50
2024-02-19T14:31:35.901Z,10.53
2024-02-19T14:34:05.917Z,10.81
2024-02-19T14:36:35.933Z,10.64
2024-02-19T14:39:11.039Z,10.44
2024-02-19T14:41:41.054Z,10.55
2024-02-19T14:44:10.948Z,10.35
2024-02-19T14:46:51.622Z,10.36
2024-02-19T14:49:27.697Z,10.23
2024-02-19T14:51:58.255Z,10.32
2024-02-19T14:54:28.350Z,10.35
2024-02-19T14:57:00.426Z,10.47
2024-02-19T14:59:30.777Z,10.33
2024-02-19T15:02:04.134Z,10.38
2024-02-19T15:04:34.211Z,10.15
2024-02-19T15:07:04.912Z,10.13
2024-02-19T15:09:34.931Z,10.17
2024-02-19T15:12:04.775Z,10.20
2024-02-19T15:14:34.634Z,10.10
2024-02-19T15:17:07.867Z,10.10
2024-02-19T15:19:37.860Z,10.12
2024-02-19T15:22:07.799Z,10.00
2024-02-19T15:24:37.616Z,10.18
2024-02-19T15:27:07.522Z,10.17
2024-02-19T15:29:37.357Z,10.26
2024-02-19T15:32:11.924Z,10.24
2024-02-19T15:34:41.803Z,10.32
2024-02-19T15:37:11.705Z,10.34
2024-02-19T15:39:41.521Z,10.35
2024-02-19T15:42:11.343Z,10.43
2024-02-19T15:44:41.262Z,10.41
2024-02-19T15:47:14.141Z,10.51
2024-02-19T15:49:48.258Z,10.14
2024-02-19T15:52:18.385Z,10.09
2024-02-19T15:54:50.675Z,10.15
2024-02-19T15:57:21.867Z,9.96
2024-02-19T15:59:52.490Z,9.98
2024-02-19T16:02:24.927Z,9.96
2024-02-19T16:04:54.842Z,9.96
2024-02-19T16:07:26.563Z,10.02
2024-02-19T16:09:57.497Z,10.07
2024-02-19T16:12:27.591Z,10.04
2024-02-19T16:14:57.438Z,10.05
2024-02-19T16:17:29.855Z,9.96
2024-02-19T16:19:59.742Z,9.91
2024-02-19T16:22:29.588Z,9.96
2024-02-19T16:25:00.595Z,9.92
2024-02-19T16:27:31.159Z,10.00
2024-02-19T16:30:00.971Z,9.90
2024-02-19T16:32:34.748Z,9.81
2024-02-19T16:35:05.833Z,9.92
2024-02-19T16:37:36.060Z,9.99
2024-02-19T16:40:07.158Z,9.83
2024-02-19T16:42:39.483Z,9.83
2024-02-19T16:45:10.344Z,9.82
2024-02-19T16:47:42.738Z,9.71
2024-02-19T16:50:12.719Z,9.82
2024-02-19T16:52:42.904Z,9.76
2024-02-19T16:55:12.857Z,9.81
2024-02-19T16:57:42.954Z,9.71
2024-02-19T17:00:13.833Z,9.74
2024-02-19T17:02:46.420Z,9.61
2024-02-19T17:05:16.578Z,9.48
2024-02-19T17:07:46.778Z,9.66
2024-02-19T17:10:19.126Z,9.72
2024-02-19T17:12:49.446Z,9.81
2024-02-19T17:15:19.460Z,9.86
2024-02-19T17:17:51.897Z,9.65
2024-02-19T17:20:22.464Z,9.78
2024-02-19T17:22:52.641Z,9.63
2024-02-19T17:25:22.568Z,9.73
2024-02-19T17:27:53.129Z,9.52
2024-02-19T17:30:23.201Z,9.69
2024-02-19T17:32:55.974Z,9.64
2024-02-19T17:35:26.875Z,9.69
2024-02-19T17:37:56.728Z,9.52
2024-02-19T17:40:27.476Z,9.69
2024-02-19T17:42:57.379Z,9.77
2024-02-19T17:45:27.302Z,9.76
2024-02-19T17:47:59.942Z,9.61
2024-02-19T17:50:36.908Z,9.79
2024-02-19T17:53:07.121Z,9.81
2024-02-19T17:55:37.124Z,9.68
2024-02-19T17:58:07.346Z,9.73
2024-02-19T18:00:37.540Z,9.99
2024-02-19T18:03:10.179Z,9.72
2024-02-19T18:05:40.393Z,9.90
2024-02-19T18:08:10.446Z,9.91
2024-02-19T18:10:40.350Z,9.81
2024-02-19T18:13:11.274Z,9.80
2024-02-19T18:15:41.298Z,9.73
2024-02-19T18:18:13.889Z,9.83
2024-02-19T18:20:49.407Z,9.67
2024-02-19T18:23:20.247Z,9.55
2024-02-19T18:25:50.401Z,9.49
2024-02-19T18:28:20.175Z,9.58
2024-02-19T18:30:50.055Z,9.64
2024-02-19T18:33:23.445Z,9.85
2024-02-19T18:35:53.226Z,9.74
2024-02-19T18:38:23.064Z,10.16
2024-02-19T18:40:54.471Z,10.00
2024-02-19T18:43:26.859Z,10.01
2024-02-19T18:45:56.873Z,10.06
2024-02-19T18:48:30.011Z,9.93
2024-02-19T18:50:59.960Z,10.01
2024-02-19T18:53:29.791Z,10.02
2024-02-19T18:56:01.893Z,9.93
2024-02-19T18:58:32.672Z,9.66
2024-02-19T19:01:05.607Z,9.67
2024-02-19T19:03:38.412Z,9.51
2024-02-19T19:06:08.971Z,9.39
2024-02-19T19:08:38.813Z,9.23
2024-02-19T19:11:08.640Z,9.28
2024-02-19T19:13:41.686Z,9.45
2024-02-19T19:16:11.608Z,9.58
2024-02-19T19:18:44.347Z,9.53
2024-02-19T19:21:14.876Z,9.65
2024-02-19T19:23:46.634Z,9.55
2024-02-19T19:26:16.958Z,9.66
2024-02-19T19:28:46.831Z,9.73
2024-02-19T19:31:16.684Z,9.84
2024-02-19T19:33:49.361Z,9.92
2024-02-19T19:36:19.468Z,9.80
2024-02-19T19:38:49.278Z,10.03
2024-02-19T19:41:19.122Z,10.11
2024-02-19T19:43:50.873Z,10.06
2024-02-19T19:46:20.897Z,9.79
2024-02-19T19:48:53.331Z,9.91
2024-02-19T19:51:21.118Z,10.06
2024-02-19T19:53:50.921Z,9.83
2024-02-19T19:56:20.738Z,10.18
2024-02-19T19:58:54.809Z,10.12
2024-02-19T20:01:24.845Z,10.31
2024-02-19T20:03:57.344Z,10.13
2024-02-19T20:06:27.318Z,10.43
2024-02-19T20:08:57.153Z,10.16
2024-02-19T20:11:27.078Z,10.00
2024-02-19T20:13:57.002Z,10.18
2024-02-19T20:16:28.216Z,10.12
2024-02-19T20:19:00.785Z,9.69
2024-02-19T20:21:30.664Z,9.89
2024-02-19T20:24:02.332Z,10.07
2024-02-19T20:26:32.232Z,9.69
2024-02-19T20:29:02.136Z,10.07
2024-02-19T20:31:32.622Z,10.13
2024-02-19T20:34:05.168Z,10.08
2024-02-19T20:36:37.753Z,10.01
2024-02-19T20:39:10.438Z,9.93
2024-02-19T20:41:40.233Z,9.98
2024-02-19T20:44:09.990Z,9.88
2024-02-19T20:46:40.540Z,9.92
2024-02-19T20:49:13.388Z,9.91
2024-02-19T20:51:43.574Z,9.86
2024-02-19T20:54:13.684Z,9.96
2024-02-19T20:56:45.126Z,10.01
2024-02-19T20:59:15.081Z,9.62
2024-02-19T21:01:47.812Z,9.49
2024-02-19T21:04:20.993Z,9.33
2024-02-19T21:06:50.886Z,9.43
2024-02-19T21:09:20.767Z,9.40
2024-02-19T21:11:50.638Z,9.73
2024-02-19T21:14:21.235Z,9.55
2024-02-19T21:16:51.123Z,9.42
2024-02-19T21:19:25.064Z,9.49
2024-02-19T21:21:55.068Z,9.59
2024-02-19T21:24:25.281Z,9.67
2024-02-19T21:26:56.436Z,9.28
2024-02-19T21:29:30.105Z,9.41
2024-02-19T21:32:00.250Z,9.30
2024-02-19T21:34:32.776Z,9.15
2024-02-19T21:37:02.639Z,9.19
2024-02-19T21:39:32.607Z,9.10
2024-02-19T21:42:02.401Z,9.03
2024-02-19T21:44:32.206Z,9.03
2024-02-19T21:47:03.505Z,9.03
2024-02-19T21:49:35.944Z,9.04
2024-02-19T21:52:05.830Z,8.94
2024-02-19T21:54:35.670Z,8.94
2024-02-19T21:57:05.626Z,9.07
2024-02-19T21:59:35.553Z,9.18
2024-02-19T22:02:05.471Z,9.16
2024-02-19T22:04:39.802Z,9.00
2024-02-19T22:07:10.348Z,8.99
2024-02-19T22:09:41.066Z,8.83
2024-02-19T22:12:12.041Z,9.04
2024-02-19T22:14:42.294Z,9.07
2024-02-19T22:17:12.176Z,8.92
2024-02-19T22:19:45.092Z,8.90
2024-02-19T22:22:15.556Z,8.90
2024-02-19T22:24:46.286Z,8.86
2024-02-19T22:27:16.133Z,8.89
2024-02-19T22:29:45.940Z,8.89
2024-02-19T22:32:15.689Z,8.85
2024-02-19T22:34:48.466Z,8.93
2024-02-19T22:37:19.200Z,8.95
2024-02-19T22:39:49.101Z,8.93
2024-02-19T22:42:18.951Z,9.01
2024-02-19T22:44:48.746Z,8.92
2024-02-19T22:47:18.542Z,8.97
2024-02-19T22:49:50.950Z,8.89
2024-02-19T22:52:20.892Z,8.87
2024-02-19T22:54:51.370Z,8.85
2024-02-19T22:57:22.585Z,8.74
2024-02-19T22:59:53.106Z,8.58
2024-02-19T23:02:22.897Z,8.59
2024-02-19T23:04:55.301Z,8.42
2024-02-19T23:07:25.114Z,8.39
2024-02-19T23:09:54.929Z,8.37
2024-02-19T23:12:24.758Z,8.34
2024-02-19T23:14:54.547Z,8.35
2024-02-19T23:17:24.323Z,8.50
2024-02-19T23:19:56.841Z,8.48
2024-02-19T23:22:26.734Z,8.35
2024-02-19T23:24:56.584Z,8.43
2024-02-19T23:27:27.247Z,8.50
2024-02-19T23:29:57.073Z,8.55
2024-02-19T23:32:26.973Z,8.60
2024-02-19T23:34:59.999Z,8.59
2024-02-19T23:37:29.983Z,8.61
2024-02-19T23:40:00.083Z,8.43
2024-02-19T23:42:30.019Z,8.24
2024-02-19T23:44:59.898Z,8.24
2024-02-19T23:47:30.360Z,8.26
2024-02-19T23:50:02.957Z,8.16
2024-02-19T23:52:33.294Z,8.16
2024-02-19T23:55:03.583Z,8.08
2024-02-19T23:57:33.525Z,8.21
